St. Gallen, Switzerland
Current Conditions -  °F | °C
As of 3:50 AM on Thursday 23 Oct 2014 (Local Time) from LSZR Reporting Station
Broken Clouds Broken Clouds  
Wind Chill: 38°   Ceiling: 3600
Heat Index: 45°   Visibility: 6mi
Dew Point: 39°   Wind: 13mph
Humidity: 81%   Direction: 260°W
Pressure: 30.18"   Gusts: NA
Location:  47.23°N, 9.23°E
Report Text: LSZR 230150Z AUTO 26011KT 220V290 9999 BKN036 SCT041 BKN050 07/04 Q1022
Loading
Personal Weather Stations






























Interactive Weather Map
Tropical Storm Tracking
New forecast layout! Learn more

10-Day Weather Forecast

Advertisements
Track Severe Weather on mobile